ETIK

Illesheim Air Base Heliport

Storck Barracks, Germany
TAF ETIK 252106Z 2521/2703 24009KT 8000 -SHRA FEW020 SCT040 QNH2994INS BECMG 2600/2601 24009KT 9999 NSW SCT010 BKN020 QNH2994INS TEMPO 2601/2606 BKN010 BECMG 2605/2606 26012G18KT 9999 SCT020 QNH3003INS TEMPO 2609/2615 26015G25KT 540003 BECMG 2617/2618 24009KT 9999 SCT040 QNH3009INS BECMG 2623/2624 VRB06KT 6000 BR SCT040 QNH3015INS TX16/2614Z TN05/2603Z
Issued Valid From Valid To
Apr-25 @ 21:06 UTC
(6 hours ago)
Apr-25 @ 21:00 UTC
(6 hours ago)
Apr-27 @ 03:00 UTC
(in 24 hours)
Expired Click to View Apr-25 @ 21:00 to Apr-26 @ 00:00
TAF ETIK 252106Z 2521/2703 24009KT 8000 -SHRA FEW020 SCT040 QNH2994INS
Wind Visibility Clouds Conditions Readings
240° at 9 knots 7,998 meters
  • Few at 2,000' AGL
  • Scattered at 4,000' AGL
  • Light Rain
Altimeter 29.94" Hg
Pressure 1014 hPa
Becoming Apr-26 @ 00:00 to Apr-26 @ 05:00
BECMG 2600/2601 24009KT 9999 NSW SCT010 BKN020 QNH2994INS
Wind Visibility Clouds Conditions Readings
240° at 9 knots 10,000+ meters
  • Scattered at 1,000' AGL
  • Broken at 2,000' AGL
Altimeter 29.94" Hg
Pressure 1014 hPa
Temporary Apr-26 @ 01:00 to Apr-26 @ 06:00
TEMPO 2601/2606 BKN010
Clouds
  • Broken at 1,000' AGL
Becoming Apr-26 @ 05:00 to Apr-26 @ 17:00
BECMG 2605/2606 26012G18KT 9999 SCT020 QNH3003INS
Wind Visibility Clouds Conditions Readings
260° at 12 knots
 Gusting to 18 knots
10,000+ meters
  • Scattered at 2,000' AGL
Altimeter 30.03" Hg
Pressure 1017 hPa
Temporary Apr-26 @ 09:00 to Apr-26 @ 15:00
TEMPO 2609/2615 26015G25KT 540003
Wind Turbulence
260° at 15 knots
 Gusting to 25 knots
Occasional moderate in cloud turbulence expected at the surface extending to 3,000' AGL
Becoming Apr-26 @ 17:00 to Apr-26 @ 23:00
BECMG 2617/2618 24009KT 9999 SCT040 QNH3009INS
Wind Visibility Clouds Conditions Readings
240° at 9 knots 10,000+ meters
  • Scattered at 4,000' AGL
Altimeter 30.09" Hg
Pressure 1019 hPa
Becoming Apr-26 @ 23:00 to Apr-27 @ 03:00
BECMG 2623/2624 VRB06KT 6000 BR SCT040 QNH3015INS TX16/2614Z TN05/2603Z
Wind Visibility Clouds Conditions Readings
Variable at 6 knots 6,003 meters
  • Scattered at 4,000' AGL
  • Mist
Altimeter 30.15" Hg
Pressure 1021 hPa
TAF ETIK 252106Z 2521/2703 24009KT 8000 -SHRA FEW020 SCT040 QNH2994INS BECMG 2600/2601 24009KT 9999 NSW SCT010 BKN020 QNH2994INS TEMPO 2601/2606 BKN010 BECMG 2605/2606 26012G18KT 9999 SCT020 QNH3003INS TEMPO 2609/2615 26015G25KT 540003 BECMG 2617/2618 24009KT 9999 SCT040 QNH3009INS BECMG 2623/2624 VRB06KT 6000 BR SCT040 QNH3015INS TX16/2614Z TN05/2603Z
Issued Apr-25 @ 21:06 UTC
(6 hours ago)
Valid From Apr-25 @ 21:00 UTC
(6 hours ago)
Valid To Apr-27 @ 03:00 UTC
(in 24 hours)
Apr-25 @ 21:00 - Apr-26 @ 00:00
Wind Visibility
240° at 9 knots 7,998 meters
Clouds
  • Few at 2,000' AGL
  • Scattered at 4,000' AGL
Conditions
  • Light Rain
Becoming Apr-26 @ 00:00 - Apr-26 @ 05:00
Wind Visibility
240° at 9 knots 10,000+ meters
Clouds
  • Scattered at 1,000' AGL
  • Broken at 2,000' AGL
Conditions
Temporary Apr-26 @ 01:00 - Apr-26 @ 06:00
Clouds
  • Broken at 1,000' AGL
Becoming Apr-26 @ 05:00 - Apr-26 @ 17:00
Wind Visibility
260° at 12 knots
 Gusting to 18 knots
10,000+ meters
Clouds
  • Scattered at 2,000' AGL
Conditions
Temporary Apr-26 @ 09:00 - Apr-26 @ 15:00
Wind
260° at 15 knots
 Gusting to 25 knots
Becoming Apr-26 @ 17:00 - Apr-26 @ 23:00
Wind Visibility
240° at 9 knots 10,000+ meters
Clouds
  • Scattered at 4,000' AGL
Conditions
Becoming Apr-26 @ 23:00 - Apr-27 @ 03:00
Wind Visibility
Variable at 6 knots 6,003 meters
Clouds
  • Scattered at 4,000' AGL
Conditions
  • Mist